Time;durP1;ratioP1;P1;durP2;ratioP2;P2;SDS_P1;SDS_P2;PMS_P1;PMS_P2;Temp;Humidity;BMP_temperature;BMP_pressure;BME280_temperature;BME280_humidity;BME280_pressure;Samples;Min_cycle;Max_cycle;Signal;HPM_P1;HPM_P2
2022/01/07 00:01:11;;;;;;;;;;;;;;;1.93;97.87;101250.75;5049376;28;19924;-82
2022/01/07 00:03:37;;;;;;;;;;;;;;;1.93;98.21;101245.59;5030358;28;20008;-79
2022/01/07 00:06:02;;;;;;;;;;;;;;;1.90;98.37;101245.59;5041202;28;20374;-78
2022/01/07 00:08:27;;;;;;;;;;;;;;;1.90;98.80;101244.75;5044375;28;19918;-79
2022/01/07 00:10:53;;;;;;;;;;;;;;;1.88;99.41;101236.09;5024849;28;19951;-83
2022/01/07 00:13:19;;;;;;;;;;;;;;;1.88;99.36;101231.78;5041426;28;19928;-83
2022/01/07 00:15:45;;;;;;;;;;;;;;;1.89;99.77;101232.66;5037888;28;19922;-77
2022/01/07 00:18:10;;;;;;;;;;;;;;;1.90;99.22;101219.69;5016560;28;19997;-78
2022/01/07 00:20:36;;;;;;;;;;;;;;;1.85;100.00;101217.13;5020487;28;20024;-79
2022/01/07 00:23:02;;;;;;;;;;;;;;;1.90;100.00;101216.25;5031088;28;20001;-79
2022/01/07 00:25:27;;;;;;;;;;;;;;;1.88;100.00;101205.00;5018498;28;20435;-80
2022/01/07 00:27:52;;;;;;;;;;;;;;;1.83;100.00;101200.72;5015604;28;19930;-79
2022/01/07 00:30:19;;;;;;;;;;;;;;;1.84;100.00;101196.41;5023380;28;19921;-76
2022/01/07 00:32:44;;;;;;;;;;;;;;;1.86;100.00;101205.03;5028166;28;19986;-77
2022/01/07 00:35:11;;;;;;;;;;;;;;;1.77;100.00;101190.38;5014670;28;20341;-78
2022/01/07 00:37:36;;;;;;;;;;;;;;;1.81;100.00;101186.94;5016129;28;19925;-73
2022/01/07 00:40:03;;;;;;;;;;;;;;;1.83;100.00;101176.53;5007268;28;20278;-73
2022/01/07 00:42:29;;;;;;;;;;;;;;;1.82;100.00;101167.03;5026322;28;20302;-75
2022/01/07 00:44:54;;;;;;;;;;;;;;;1.87;100.00;101175.66;5036491;28;19921;-80
2022/01/07 00:47:19;;;;;;;;;;;;;;;1.84;100.00;101158.38;5030898;28;22253;-79
2022/01/07 00:49:45;;;;;;;;;;;;;;;1.83;100.00;101163.59;5028524;28;20087;-79
2022/01/07 00:52:10;;;;;;;;;;;;;;;1.80;100.00;101167.06;5027691;28;20367;-79
2022/01/07 00:54:35;;;;;;;;;;;;;;;1.82;100.00;101169.63;5000304;28;19970;-79
2022/01/07 00:57:01;;;;;;;;;;;;;;;1.90;100.00;101165.25;5024329;28;20550;-79
2022/01/07 00:59:26;;;;;;;;;;;;;;;1.85;100.00;101147.16;5009759;28;19921;-78
2022/01/07 01:01:52;;;;;;;;;;;;;;;1.85;100.00;101152.34;5033576;28;20398;-79
2022/01/07 01:04:18;;;;;;;;;;;;;;;1.82;100.00;101154.94;5023811;28;19932;-78
2022/01/07 01:06:45;;;;;;;;;;;;;;;1.77;100.00;101146.34;5021686;28;20052;-82
2022/01/07 01:09:11;;;;;;;;;;;;;;;1.78;100.00;101137.72;5024200;28;19987;-79
2022/01/07 01:11:37;;;;;;;;;;;;;;;1.80;100.00;101141.16;5030467;28;19921;-79
2022/01/07 01:14:03;;;;;;;;;;;;;;;1.84;100.00;101135.06;5026302;28;19928;-80
2022/01/07 01:16:28;;;;;;;;;;;;;;;1.83;100.00;101146.31;5030006;28;19921;-80
2022/01/07 01:18:53;;;;;;;;;;;;;;;1.85;100.00;101141.13;5027454;28;20012;-80
2022/01/07 01:21:19;;;;;;;;;;;;;;;1.87;100.00;101134.22;5016897;28;19929;-79
2022/01/07 01:23:45;;;;;;;;;;;;;;;1.88;100.00;101132.47;5024915;28;20037;-78
2022/01/07 01:26:11;;;;;;;;;;;;;;;1.89;100.00;101126.44;5019555;28;19924;-77
2022/01/07 01:28:36;;;;;;;;;;;;;;;1.89;100.00;101131.59;5023333;28;20069;-77
2022/01/07 01:31:02;;;;;;;;;;;;;;;1.87;100.00;101115.19;5001221;28;20020;-73
2022/01/07 01:33:27;;;;;;;;;;;;;;;1.93;100.00;101116.03;5021940;28;19925;-74
2022/01/07 01:35:52;;;;;;;;;;;;;;;1.90;100.00;101115.19;5026022;28;20634;-74
2022/01/07 01:38:18;;;;;;;;;;;;;;;1.95;100.00;101101.34;5026577;28;19925;-75
2022/01/07 01:40:43;;;;;;;;;;;;;;;1.99;100.00;101097.00;5023998;28;19925;-76
2022/01/07 01:43:09;;;;;;;;;;;;;;;1.94;100.00;101101.31;5029517;28;20319;-77
2022/01/07 01:45:34;;;;;;;;;;;;;;;1.99;100.00;101090.06;5029176;28;19925;-75
2022/01/07 01:47:59;;;;;;;;;;;;;;;1.94;100.00;101099.63;5015922;28;20011;-74
2022/01/07 01:50:24;;;;;;;;;;;;;;;1.94;100.00;101093.56;5019655;28;20393;-76
2022/01/07 01:55:32;;;;;;;;;;;;;;;2.00;100.00;101096.97;5019537;28;20659;-76
2022/01/07 01:57:58;;;;;;;;;;;;;;;2.01;100.00;101085.72;5031859;28;19928;-75
2022/01/07 02:00:25;;;;;;;;;;;;;;;2.06;100.00;101083.09;5017543;28;20627;-78
2022/01/07 02:02:50;;;;;;;;;;;;;;;2.09;100.00;101085.69;5026848;28;19928;-79
2022/01/07 02:05:15;;;;;;;;;;;;;;;2.11;100.00;101076.16;5023619;28;19921;-77
2022/01/07 02:07:41;;;;;;;;;;;;;;;2.15;100.00;101074.41;5025564;28;20513;-74
2022/01/07 02:10:10;;;;;;;;;;;;;;;2.17;100.00;101063.16;5021716;28;20297;-75
2022/01/07 02:12:36;;;;;;;;;;;;;;;2.22;100.00;101059.66;5029412;28;20025;-77
2022/01/07 02:15:02;;;;;;;;;;;;;;;2.23;100.00;101054.47;5022068;28;20384;-74
2022/01/07 02:17:27;;;;;;;;;;;;;;;2.24;100.00;101051.00;5017650;28;19918;-76
2022/01/07 02:19:53;;;;;;;;;;;;;;;2.25;100.00;101041.50;5020763;28;19921;-76
2022/01/07 02:22:18;;;;;;;;;;;;;;;2.29;100.00;101038.00;5027419;28;19916;-75
2022/01/07 02:24:45;;;;;;;;;;;;;;;2.26;100.00;101033.69;5037697;28;19919;-75
2022/01/07 02:27:11;;;;;;;;;;;;;;;2.31;100.00;101033.66;5031426;28;19925;-75
2022/01/07 02:29:36;;;;;;;;;;;;;;;2.28;100.00;101020.72;5022984;28;19925;-74
2022/01/07 02:32:02;;;;;;;;;;;;;;;2.29;100.00;101023.31;5042279;28;19927;-74
2022/01/07 02:34:27;;;;;;;;;;;;;;;2.28;100.00;101025.91;5040385;28;20302;-73
2022/01/07 02:36:52;;;;;;;;;;;;;;;2.29;100.00;101015.53;5038852;28;19921;-73
2022/01/07 02:39:18;;;;;;;;;;;;;;;2.30;100.00;101018.97;5030762;28;19921;-72
2022/01/07 02:41:43;;;;;;;;;;;;;;;2.32;100.00;101017.22;5034207;28;19917;-73
2022/01/07 02:44:09;;;;;;;;;;;;;;;2.33;100.00;101013.75;5029180;28;20558;-72
2022/01/07 02:46:34;;;;;;;;;;;;;;;2.34;100.00;101010.28;5023236;28;19934;-74
2022/01/07 02:49:06;;;;;;;;;;;;;;;2.34;100.00;101009.41;5029094;28;19929;-73
2022/01/07 02:51:32;;;;;;;;;;;;;;;2.36;100.00;101012.88;5023404;28;20020;-73
2022/01/07 02:53:57;;;;;;;;;;;;;;;2.39;100.00;101018.88;5023816;28;20367;-73
2022/01/07 02:56:22;;;;;;;;;;;;;;;2.44;100.00;101011.91;5014835;28;19921;-73
2022/01/07 02:58:47;;;;;;;;;;;;;;;2.47;100.00;101011.03;5017161;28;20017;-71
2022/01/07 03:01:13;;;;;;;;;;;;;;;2.47;100.00;101011.91;5024791;28;19921;-73
2022/01/07 03:03:38;;;;;;;;;;;;;;;2.50;100.00;101005.81;5019582;28;19976;-72
2022/01/07 03:06:03;;;;;;;;;;;;;;;2.52;100.00;100991.09;5013786;28;19921;-71
2022/01/07 03:08:29;;;;;;;;;;;;;;;2.57;100.00;100997.06;5022334;28;19932;-72
2022/01/07 03:10:54;;;;;;;;;;;;;;;2.60;100.00;100994.47;5019201;28;19997;-73
2022/01/07 03:13:19;;;;;;;;;;;;;;;2.67;100.00;100991.78;5023059;28;19925;-74
2022/01/07 03:15:44;;;;;;;;;;;;;;;2.66;100.00;100984.88;5027588;28;19925;-74
2022/01/07 03:18:10;;;;;;;;;;;;;;;2.67;100.00;100965.84;5019302;28;19928;-75
2022/01/07 03:20:38;;;;;;;;;;;;;;;2.67;100.00;100979.69;5036468;28;19921;-71
2022/01/07 03:23:04;;;;;;;;;;;;;;;2.66;100.00;100965.00;5018880;28;19968;-71
2022/01/07 03:25:30;;;;;;;;;;;;;;;2.66;100.00;100975.38;5027732;28;19996;-73
2022/01/07 03:27:55;;;;;;;;;;;;;;;2.67;100.00;100958.06;5019672;28;20382;-72
2022/01/07 03:30:20;;;;;;;;;;;;;;;2.67;100.00;100960.66;5016694;28;19917;-74
2022/01/07 03:32:46;;;;;;;;;;;;;;;2.70;100.00;100950.25;5016270;28;19969;-73
2022/01/07 03:35:12;;;;;;;;;;;;;;;2.65;100.00;100952.06;5021890;28;20318;-72
2022/01/07 03:37:38;;;;;;;;;;;;;;;2.68;100.00;100949.41;5022932;28;20012;-73
2022/01/07 03:40:04;;;;;;;;;;;;;;;2.66;100.00;100949.44;5023769;28;19928;-73
2022/01/07 03:42:29;;;;;;;;;;;;;;;2.67;100.00;100947.69;5020573;28;19921;-71
2022/01/07 03:44:55;;;;;;;;;;;;;;;2.66;100.00;100944.25;5019562;28;19940;-74
2022/01/07 03:47:20;;;;;;;;;;;;;;;2.69;100.00;100932.97;5023152;28;19929;-73
2022/01/07 03:49:45;;;;;;;;;;;;;;;2.71;100.00;100931.22;5019101;28;20294;-73
2022/01/07 03:52:10;;;;;;;;;;;;;;;2.70;100.00;100938.13;5045042;28;19952;-74
2022/01/07 03:54:36;;;;;;;;;;;;;;;2.72;100.00;100926.00;5019207;28;19952;-73
2022/01/07 03:57:01;;;;;;;;;;;;;;;2.72;100.00;100930.34;5023718;28;19989;-73
2022/01/07 03:59:27;;;;;;;;;;;;;;;2.75;100.00;100915.59;5031728;28;19917;-72
2022/01/07 04:01:53;;;;;;;;;;;;;;;2.77;100.00;100921.63;5040228;28;20411;-73
2022/01/07 04:04:18;;;;;;;;;;;;;;;2.77;100.00;100919.03;5028382;28;20027;-74
2022/01/07 04:06:43;;;;;;;;;;;;;;;2.83;100.00;100906.84;5038202;28;19929;-75
2022/01/07 04:09:09;;;;;;;;;;;;;;;2.84;100.00;100916.34;5037732;28;19960;-73
2022/01/07 04:11:34;;;;;;;;;;;;;;;2.85;100.00;100908.56;5037616;28;19959;-76
2022/01/07 04:13:59;;;;;;;;;;;;;;;2.90;100.00;100901.53;5032867;28;19921;-74
2022/01/07 04:16:25;;;;;;;;;;;;;;;2.89;100.00;100894.63;5029961;28;20344;-75
2022/01/07 04:18:50;;;;;;;;;;;;;;;2.90;100.00;100900.69;5052657;28;19921;-76
2022/01/07 04:21:15;;;;;;;;;;;;;;;2.91;100.00;100898.06;5030560;28;19917;-78
2022/01/07 04:23:40;;;;;;;;;;;;;;;2.91;100.00;100897.22;5026541;28;19943;-76
2022/01/07 04:26:06;;;;;;;;;;;;;;;2.93;100.00;100890.25;5024030;28;20411;-76
2022/01/07 04:28:31;;;;;;;;;;;;;;;2.92;100.00;100880.78;5020614;28;19951;-75
2022/01/07 04:30:56;;;;;;;;;;;;;;;2.93;100.00;100885.06;5016898;28;19918;-76
2022/01/07 04:33:26;;;;;;;;;;;;;;;2.95;100.00;100888.50;5014218;28;20008;-75
2022/01/07 04:35:52;;;;;;;;;;;;;;;2.94;100.00;100887.66;5025859;28;19917;-74
2022/01/07 04:38:17;;;;;;;;;;;;;;;2.97;100.00;100906.66;5025921;28;19948;-75
2022/01/07 04:40:43;;;;;;;;;;;;;;;2.94;100.00;100889.38;5026419;28;19921;-75
2022/01/07 04:43:08;;;;;;;;;;;;;;;2.96;100.00;100898.00;5024976;28;19980;-75
2022/01/07 04:45:34;;;;;;;;;;;;;;;3.00;100.00;100896.22;5015978;28;19947;-75
2022/01/07 04:48:00;;;;;;;;;;;;;;;3.04;100.00;100898.75;5052465;28;19921;-75
2022/01/07 04:50:25;;;;;;;;;;;;;;;3.05;100.00;100897.03;5037350;28;19929;-74
2022/01/07 04:52:51;;;;;;;;;;;;;;;3.08;100.00;100900.41;5048321;28;19944;-74
2022/01/07 04:55:36;;;;;;;;;;;;;;;3.09;100.00;100898.66;5041164;28;19921;-71
2022/01/07 04:58:02;;;;;;;;;;;;;;;3.14;100.00;100896.03;5041964;28;19944;-72
2022/01/07 05:00:27;;;;;;;;;;;;;;;3.11;100.00;100902.09;5033805;28;20296;-71
2022/01/07 05:02:53;;;;;;;;;;;;;;;3.10;100.00;100890.00;5046613;28;19928;-72
2022/01/07 05:05:18;;;;;;;;;;;;;;;3.09;100.00;100903.88;5028766;28;20359;-73
2022/01/07 05:07:43;;;;;;;;;;;;;;;3.09;100.00;100890.88;5053560;28;19920;-72
2022/01/07 05:10:10;;;;;;;;;;;;;;;3.08;100.00;100904.78;5040025;28;19931;-74
2022/01/07 05:12:36;;;;;;;;;;;;;;;3.11;100.00;100903.88;5030217;28;19920;-73
2022/01/07 05:15:02;;;;;;;;;;;;;;;3.11;100.00;100899.50;5037091;28;19993;-72
2022/01/07 05:17:27;;;;;;;;;;;;;;;3.05;100.00;100892.69;5041354;28;19925;-74
2022/01/07 05:19:53;;;;;;;;;;;;;;;3.03;100.00;100909.16;5039121;28;19921;-74
2022/01/07 05:22:18;;;;;;;;;;;;;;;3.00;100.00;100904.00;5043922;28;20412;-74
2022/01/07 05:24:43;;;;;;;;;;;;;;;2.95;100.00;100898.88;5044578;28;20008;-73
2022/01/07 05:27:08;;;;;;;;;;;;;;;2.92;100.00;100902.38;5044565;28;19929;-73
2022/01/07 05:29:35;;;;;;;;;;;;;;;2.94;100.00;100899.75;5050091;28;19964;-73
2022/01/07 05:32:15;;;;;;;;;;;;;;;2.95;100.00;100901.47;5066684;28;19917;-73
2022/01/07 05:34:41;;;;;;;;;;;;;;;3.00;100.00;100901.41;5081895;28;20501;-73
2022/01/07 05:37:09;;;;;;;;;;;;;;;3.00;100.00;100901.41;5045853;28;20024;-73
2022/01/07 05:39:34;;;;;;;;;;;;;;;2.98;100.00;100900.59;5049026;28;19917;-73
2022/01/07 05:42:00;;;;;;;;;;;;;;;2.97;100.00;100904.06;5045945;28;19917;-73
2022/01/07 05:44:25;;;;;;;;;;;;;;;2.94;100.00;100905.81;5044271;28;20298;-72
2022/01/07 05:46:51;;;;;;;;;;;;;;;2.95;100.00;100901.47;5048328;28;19948;-73
2022/01/07 05:49:16;;;;;;;;;;;;;;;2.91;100.00;100898.06;5045664;28;19943;-72
2022/01/07 05:51:41;;;;;;;;;;;;;;;2.87;100.00;100898.97;5048819;28;19921;-72
2022/01/07 05:54:07;;;;;;;;;;;;;;;2.84;100.00;100896.44;5045830;28;19917;-71
2022/01/07 05:56:32;;;;;;;;;;;;;;;2.83;100.00;100894.72;5059198;28;20331;-73
2022/01/07 05:58:58;;;;;;;;;;;;;;;2.89;100.00;100894.63;5027136;28;19921;-74
2022/01/07 06:01:23;;;;;;;;;;;;;;;2.93;100.00;100896.31;5044852;28;19944;-74
2022/01/07 06:03:48;;;;;;;;;;;;;;;2.99;100.00;100889.31;5048244;28;19924;-73
2022/01/07 06:06:14;;;;;;;;;;;;;;;2.99;100.00;100899.69;5047261;28;19921;-73
2022/01/07 06:08:39;;;;;;;;;;;;;;;3.01;100.00;100896.22;5048139;28;19928;-73
2022/01/07 06:11:04;;;;;;;;;;;;;;;3.03;100.00;100897.03;5044596;28;19917;-73
2022/01/07 06:13:30;;;;;;;;;;;;;;;3.01;100.00;100904.00;5046402;28;20530;-74
2022/01/07 06:15:55;;;;;;;;;;;;;;;3.01;100.00;100898.81;5046332;28;19920;-73
2022/01/07 06:18:20;;;;;;;;;;;;;;;3.01;100.00;100898.81;5033246;28;19925;-73
2022/01/07 06:20:45;;;;;;;;;;;;;;;3.01;100.00;100895.34;5028112;28;19923;-74
2022/01/07 06:23:11;;;;;;;;;;;;;;;3.00;100.00;100899.69;5024863;28;19924;-74
2022/01/07 06:25:36;;;;;;;;;;;;;;;3.02;100.00;100907.44;5026371;28;20008;-74
2022/01/07 06:28:02;;;;;;;;;;;;;;;2.99;100.00;100902.28;5025331;28;19960;-72
2022/01/07 06:30:27;;;;;;;;;;;;;;;2.97;100.00;100910.09;5045738;28;20405;-72
2022/01/07 06:32:53;;;;;;;;;;;;;;;2.99;100.00;100910.06;5066289;28;20392;-74
2022/01/07 06:35:18;;;;;;;;;;;;;;;2.97;100.00;100906.66;5046789;28;22165;-72
2022/01/07 06:37:44;;;;;;;;;;;;;;;3.01;100.00;100908.31;5066600;28;19916;-72
2022/01/07 06:40:10;;;;;;;;;;;;;;;3.00;100.00;100910.06;5065376;28;19921;-74
2022/01/07 06:42:35;;;;;;;;;;;;;;;3.05;100.00;100894.44;5069347;28;19953;-75
2022/01/07 06:45:00;;;;;;;;;;;;;;;3.08;100.00;100891.78;5036705;28;20227;-72
2022/01/07 06:47:26;;;;;;;;;;;;;;;3.11;100.00;100878.75;5028166;28;19932;-72
2022/01/07 06:49:51;;;;;;;;;;;;;;;3.14;100.00;100894.28;5027080;28;19975;-73
2022/01/07 06:52:17;;;;;;;;;;;;;;;3.22;100.00;100892.41;5025449;28;19921;-71
2022/01/07 06:54:42;;;;;;;;;;;;;;;3.27;100.00;100886.31;5035332;28;20386;-72
2022/01/07 06:57:07;;;;;;;;;;;;;;;3.26;100.00;100890.63;5048784;28;19978;-72
2022/01/07 06:59:33;;;;;;;;;;;;;;;3.30;100.00;100891.47;5049445;28;19931;-73
2022/01/07 07:01:58;;;;;;;;;;;;;;;3.34;100.00;100885.31;5049655;28;19927;-72
2022/01/07 07:04:24;;;;;;;;;;;;;;;3.40;100.00;100874.84;5048717;28;19921;-72
2022/01/07 07:06:50;;;;;;;;;;;;;;;3.41;100.00;100884.34;5049711;28;20037;-74
2022/01/07 07:09:17;;;;;;;;;;;;;;;3.44;100.00;100880.84;5048836;28;20027;-72
2022/01/07 07:11:43;;;;;;;;;;;;;;;3.48;100.00;100883.38;5061717;28;19923;-74
2022/01/07 07:14:09;;;;;;;;;;;;;;;3.48;100.00;100880.75;5029012;28;20416;-74
2022/01/07 07:16:34;;;;;;;;;;;;;;;3.49;100.00;100879.00;5032329;28;19916;-73
2022/01/07 07:19:00;;;;;;;;;;;;;;;3.53;100.00;100881.53;5045451;28;19963;-73
2022/01/07 07:21:25;;;;;;;;;;;;;;;3.53;100.00;100885.88;5062692;28;19916;-74
2022/01/07 07:23:50;;;;;;;;;;;;;;;3.52;100.00;100890.22;5064176;28;19923;-72
2022/01/07 07:26:16;;;;;;;;;;;;;;;3.51;100.00;100888.53;5048757;28;20344;-74
2022/01/07 07:28:41;;;;;;;;;;;;;;;3.51;100.00;100893.72;5050422;28;19921;-73
2022/01/07 07:31:11;;;;;;;;;;;;;;;3.50;100.00;100891.13;5063553;28;19951;-73
2022/01/07 07:39:13;;;;;;;;;;;;;;;3.48;100.00;100887.69;5069145;28;19939;-72
2022/01/07 07:41:39;;;;;;;;;;;;;;;3.42;100.00;100898.19;5061071;28;19917;-72
2022/01/07 07:44:06;;;;;;;;;;;;;;;3.41;100.00;100892.16;5058148;28;20360;-73
2022/01/07 07:46:32;;;;;;;;;;;;;;;3.40;100.00;100898.22;5048069;28;19928;-75
2022/01/07 07:49:00;;;;;;;;;;;;;;;3.37;100.00;100899.09;5030082;28;20305;-74
2022/01/07 07:51:26;;;;;;;;;;;;;;;3.37;100.00;100901.72;5046749;28;19921;-73
2022/01/07 07:53:51;;;;;;;;;;;;;;;3.36;100.00;100920.75;5048456;28;20366;-74
2022/01/07 07:56:17;;;;;;;;;;;;;;;3.36;100.00;100919.91;5044991;28;19929;-73
2022/01/07 07:58:42;;;;;;;;;;;;;;;3.28;100.00;100947.75;5046963;28;19920;-72
2022/01/07 08:01:08;;;;;;;;;;;;;;;3.26;100.00;100955.53;5053441;28;19927;-74
2022/01/07 08:03:33;;;;;;;;;;;;;;;3.02;100.00;100942.06;5046833;28;20425;-74
2022/01/07 08:05:59;;;;;;;;;;;;;;;2.87;100.00;100901.56;5062654;28;19924;-75
2022/01/07 08:08:24;;;;;;;;;;;;;;;2.81;100.00;100911.22;5067700;28;19974;-74
2022/01/07 08:10:53;;;;;;;;;;;;;;;2.82;100.00;100912.91;5066022;28;19965;-75
2022/01/07 08:16:04;;;;;;;;;;;;;;;2.78;100.00;100912.09;5049118;28;20015;-75
2022/01/07 08:18:45;;;;;;;;;;;;;;;2.91;100.00;100908.44;5026046;28;19948;-75
2022/01/07 08:21:11;;;;;;;;;;;;;;;2.98;100.00;100903.19;5029216;28;20431;-74
2022/01/07 08:23:38;;;;;;;;;;;;;;;3.00;100.00;100911.78;5028858;28;19925;-75
2022/01/07 08:26:04;;;;;;;;;;;;;;;2.97;100.00;100897.13;5024820;28;19923;-76
2022/01/07 08:28:36;;;;;;;;;;;;;;;2.97;100.00;100897.13;5029817;28;19931;-74
2022/01/07 08:31:24;;;;;;;;;;;;;;;2.96;100.00;100903.19;5033962;28;19921;-74
2022/01/07 08:36:30;;;;;;;;;;;;;;;2.91;100.00;100899.81;5029661;28;20469;-73
2022/01/07 08:38:55;;;;;;;;;;;;;;;2.89;100.00;100894.63;5029747;28;19967;-75
2022/01/07 08:41:22;;;;;;;;;;;;;;;2.90;100.00;100891.16;5027596;28;19929;-74
2022/01/07 08:43:48;;;;;;;;;;;;;;;2.91;100.00;100899.81;5042080;28;19917;-74
2022/01/07 08:46:13;;;;;;;;;;;;;;;2.97;100.00;100906.66;5036960;28;20000;-74
2022/01/07 08:48:38;;;;;;;;;;;;;;;3.02;100.00;100897.06;5047066;28;20430;-74
2022/01/07 08:51:04;;;;;;;;;;;;;;;3.05;100.00;100895.28;5011970;28;19976;-74
2022/01/07 08:53:30;;;;;;;;;;;;;;;3.14;100.00;100890.84;5006906;28;20012;-74
2022/01/07 08:55:55;;;;;;;;;;;;;;;3.30;100.00;100883.69;5008754;28;20005;-74
2022/01/07 08:58:21;;;;;;;;;;;;;;;3.26;100.00;100893.22;5007087;28;20350;-74
2022/01/07 09:00:46;;;;;;;;;;;;;;;3.18;100.00;100895.97;5013835;28;19925;-75
2022/01/07 09:03:11;;;;;;;;;;;;;;;3.14;100.00;100896.03;5017010;28;19917;-74
2022/01/07 09:05:37;;;;;;;;;;;;;;;3.11;100.00;100898.66;5013860;28;19921;-73
2022/01/07 09:08:02;;;;;;;;;;;;;;;3.10;100.00;100900.38;5023273;28;20008;-74
2022/01/07 09:10:27;;;;;;;;;;;;;;;3.11;100.00;100901.25;5017665;28;20275;-73
2022/01/07 09:12:53;;;;;;;;;;;;;;;3.14;100.00;100903.81;5015722;28;19921;-74
2022/01/07 09:15:19;;;;;;;;;;;;;;;3.14;100.00;100902.06;5015499;28;20366;-74
2022/01/07 09:17:44;;;;;;;;;;;;;;;3.16;100.00;100905.50;5013036;28;19960;-74
2022/01/07 09:20:10;;;;;;;;;;;;;;;3.20;100.00;100906.31;5012426;28;19932;-75
2022/01/07 09:22:36;;;;;;;;;;;;;;;3.23;100.00;100912.31;5013633;28;19917;-74
2022/01/07 09:25:02;;;;;;;;;;;;;;;3.25;100.00;100910.56;4992444;28;19918;-73
2022/01/07 09:27:28;;;;;;;;;;;;;;;3.25;100.00;100910.56;4997127;28;19921;-73
2022/01/07 09:29:53;;;;;;;;;;;;;;;3.27;100.00;100909.69;4997040;28;20085;-75
2022/01/07 09:32:18;;;;;;;;;;;;;;;3.29;100.00;100913.13;4994027;28;19921;-74
2022/01/07 09:34:44;;;;;;;;;;;;;;;3.31;100.00;100912.19;4994724;28;19921;-75
2022/01/07 09:37:09;;;;;;;;;;;;;;;3.34;100.00;100906.09;4996915;28;19925;-74
2022/01/07 09:39:36;;;;;;;;;;;;;;;3.37;100.00;100911.25;5000313;28;19956;-75
2022/01/07 09:42:02;;;;;;;;;;;;;;;3.40;100.00;100906.00;4994515;28;20016;-74
2022/01/07 09:44:28;;;;;;;;;;;;;;;3.36;100.00;100899.16;4985835;28;19922;-75
2022/01/07 09:46:54;;;;;;;;;;;;;;;3.34;100.00;100901.78;4997904;28;19926;-75
2022/01/07 09:49:19;;;;;;;;;;;;;;;3.32;100.00;100900.94;4997457;28;19929;-74
2022/01/07 09:51:44;;;;;;;;;;;;;;;3.32;100.00;100902.66;5024572;28;19917;-74
2022/01/07 09:54:10;;;;;;;;;;;;;;;3.36;100.00;100888.75;5024286;28;19918;-76
2022/01/07 09:56:37;;;;;;;;;;;;;;;3.48;100.00;100893.75;5029314;28;19925;-73
2022/01/07 09:59:05;;;;;;;;;;;;;;;3.43;98.72;100892.13;5039698;28;19921;-75
2022/01/07 10:01:30;;;;;;;;;;;;;;;3.38;98.47;100884.41;5025992;28;19924;-75
2022/01/07 10:03:56;;;;;;;;;;;;;;;3.41;97.96;100892.16;5031275;28;19917;-74
2022/01/07 10:06:37;;;;;;;;;;;;;;;3.53;97.72;100888.47;5044079;28;19979;-74
2022/01/07 10:09:05;;;;;;;;;;;;;;;3.68;96.18;100879.56;5034538;28;20350;-75
2022/01/07 10:11:31;;;;;;;;;;;;;;;3.78;95.81;100865.53;5033962;28;19952;-74
2022/01/07 10:14:11;;;;;;;;;;;;;;;4.02;94.74;100871.16;5044223;28;19955;-75
2022/01/07 10:16:52;;;;;;;;;;;;;;;4.09;94.07;100864.09;5041565;28;19921;-74
2022/01/07 10:19:33;;;;;;;;;;;;;;;3.99;94.03;100866.00;5024093;28;19957;-74
2022/01/07 10:22:13;;;;;;;;;;;;;;;3.88;95.00;100871.41;5025622;28;19925;-74
2022/01/07 10:24:54;;;;;;;;;;;;;;;3.77;95.52;100874.19;5056896;28;19920;-74
2022/01/07 10:27:20;;;;;;;;;;;;;;;3.73;96.20;100880.34;5064048;28;20461;-75
2022/01/07 10:29:46;;;;;;;;;;;;;;;3.70;96.16;100888.19;5066302;28;19916;-75
2022/01/07 10:32:26;;;;;;;;;;;;;;;3.67;96.76;100876.13;5047433;28;19917;-74
2022/01/07 10:35:07;;;;;;;;;;;;;;;3.84;96.97;100886.22;5050104;28;19925;-74
2022/01/07 10:37:33;;;;;;;;;;;;;;;5.02;93.37;100862.09;5047783;28;20609;-74
2022/01/07 10:39:59;;;;;;;;;;;;;;;5.91;88.19;100826.84;5049981;28;20393;-74
2022/01/07 10:42:39;;;;;;;;;;;;;;;6.75;83.96;100801.81;5047400;28;19959;-74
2022/01/07 10:45:05;;;;;;;;;;;;;;;6.27;83.37;100809.38;5037998;28;19933;-74
2022/01/07 10:47:30;;;;;;;;;;;;;;;6.06;84.42;100823.03;5047505;28;19921;-75
2022/01/07 10:50:11;;;;;;;;;;;;;;;5.85;85.57;100822.66;5047752;28;19925;-74
2022/01/07 10:52:36;;;;;;;;;;;;;;;5.67;87.48;100840.53;5046218;28;20585;-76
2022/01/07 10:55:18;;;;;;;;;;;;;;;5.66;88.41;100843.19;5031369;28;19975;-77
2022/01/07 10:57:45;;;;;;;;;;;;;;;5.57;88.71;100839.91;5029716;28;20475;-76
2022/01/07 11:00:12;;;;;;;;;;;;;;;5.28;87.81;100832.84;5054947;28;19925;-76
2022/01/07 11:02:37;;;;;;;;;;;;;;;5.22;86.83;100835.59;5027103;28;19960;-76
2022/01/07 11:05:03;;;;;;;;;;;;;;;5.26;84.36;100824.22;5025874;28;19968;-75
2022/01/07 11:10:09;;;;;;;;;;;;;;;5.28;84.47;100817.22;5025879;28;19944;-75
2022/01/07 11:12:35;;;;;;;;;;;;;;;5.39;84.50;100804.78;5039874;28;20314;-75
2022/01/07 11:15:01;;;;;;;;;;;;;;;5.48;84.41;100813.25;5048082;28;19925;-74
2022/01/07 11:17:27;;;;;;;;;;;;;;;5.65;85.41;100820.63;5046784;28;19916;-75
2022/01/07 11:20:07;;;;;;;;;;;;;;;5.66;83.51;100820.56;5030111;28;19924;-76
2022/01/07 11:22:38;;;;;;;;;;;;;;;5.70;84.11;100822.22;5045953;28;20008;-77
2022/01/07 11:25:05;;;;;;;;;;;;;;;5.75;84.52;100821.22;5044923;28;19921;-76
2022/01/07 11:27:30;;;;;;;;;;;;;;;5.81;84.83;100821.06;5047045;28;19971;-75
2022/01/07 11:30:11;;;;;;;;;;;;;;;5.78;83.10;100822.00;5052833;28;19924;-76
2022/01/07 11:32:52;;;;;;;;;;;;;;;5.75;82.37;100813.38;5066095;28;19966;-75
2022/01/07 11:35:17;;;;;;;;;;;;;;;5.58;83.49;100814.72;5066995;28;19927;-77
2022/01/07 11:37:44;;;;;;;;;;;;;;;5.62;83.74;100811.13;5049436;28;19917;-76
2022/01/07 11:40:09;;;;;;;;;;;;;;;5.52;82.47;100799.22;5067688;28;19924;-75
2022/01/07 11:42:50;;;;;;;;;;;;;;;5.70;83.11;100803.09;5068052;28;19965;-75
2022/01/07 11:45:31;;;;;;;;;;;;;;;5.76;82.39;100783.81;5033235;28;19978;-75
2022/01/07 11:47:58;;;;;;;;;;;;;;;5.61;81.95;100785.97;5040305;28;19932;-76
2022/01/07 11:50:25;;;;;;;;;;;;;;;5.58;81.09;100778.22;5046628;28;20296;-75
2022/01/07 11:53:06;;;;;;;;;;;;;;;5.32;81.14;100784.97;5047086;28;19921;-75
2022/01/07 11:55:32;;;;;;;;;;;;;;;5.06;80.42;100780.44;5030953;28;19917;-75
2022/01/07 11:58:01;;;;;;;;;;;;;;;4.98;81.30;100788.41;5043551;28;20429;-78
2022/01/07 12:00:41;;;;;;;;;;;;;;;4.90;82.02;100795.56;5034779;28;19925;-75
2022/01/07 12:03:07;;;;;;;;;;;;;;;4.90;82.29;100799.03;5026816;28;19925;-75
2022/01/07 12:05:32;;;;;;;;;;;;;;;4.92;81.79;100793.78;5027999;28;20413;-77
2022/01/07 12:07:57;;;;;;;;;;;;;;;4.98;81.95;100790.19;5027025;28;19932;-77
2022/01/07 12:10:23;;;;;;;;;;;;;;;4.97;81.21;100794.53;5025244;28;19936;-76
2022/01/07 12:12:48;;;;;;;;;;;;;;;5.01;80.84;100788.34;5025987;28;20076;-76
2022/01/07 12:15:13;;;;;;;;;;;;;;;4.94;80.48;100786.81;5029596;28;19929;-78
2022/01/07 12:17:38;;;;;;;;;;;;;;;4.79;80.07;100786.28;5030860;28;19933;-76
2022/01/07 12:20:19;;;;;;;;;;;;;;;4.67;79.22;100776.16;5032671;28;19925;-75
2022/01/07 12:22:45;;;;;;;;;;;;;;;4.63;78.71;100771.91;5015389;28;20382;-75
2022/01/07 12:25:10;;;;;;;;;;;;;;;4.60;78.95;100771.97;5045960;28;19987;-77
2022/01/07 12:27:35;;;;;;;;;;;;;;;4.62;79.14;100778.00;5047446;28;19953;-76
2022/01/07 12:30:01;;;;;;;;;;;;;;;4.60;78.72;100782.38;5049862;28;19928;-75
2022/01/07 12:32:41;;;;;;;;;;;;;;;4.61;79.87;100778.91;5048559;28;19933;-77
2022/01/07 12:35:08;;;;;;;;;;;;;;;4.62;80.35;100778.84;5044995;28;19929;-76
2022/01/07 12:37:33;;;;;;;;;;;;;;;4.66;81.01;100782.25;5045409;28;20661;-76
2022/01/07 12:40:00;;;;;;;;;;;;;;;4.70;80.25;100783.88;5050571;28;19920;-76
2022/01/07 12:42:27;;;;;;;;;;;;;;;4.73;81.10;100783.81;5046578;28;19942;-76
2022/01/07 12:44:54;;;;;;;;;;;;;;;4.73;79.49;100781.22;5045972;28;20017;-76
2022/01/07 12:47:35;;;;;;;;;;;;;;;4.75;80.56;100782.00;5045916;28;19925;-77
2022/01/07 12:50:02;;;;;;;;;;;;;;;4.96;79.66;100772.00;5044834;28;19951;-75
2022/01/07 12:52:29;;;;;;;;;;;;;;;5.14;78.64;100777.63;5046161;28;20373;-75